Time;durP1;ratioP1;P1;durP2;ratioP2;P2;SDS_P1;SDS_P2;PMS_P1;PMS_P2;Temp;Humidity;BMP_temperature;BMP_pressure;BME280_temperature;BME280_humidity;BME280_pressure;Samples;Min_cycle;Max_cycle;Signal;HPM_P1;HPM_P2
2022/08/16 00:01:32;;;;;;;14.65;12.07;;;21.80;99.90;;;;;;5002494;28;20395;-78
2022/08/16 00:03:58;;;;;;;17.30;13.00;;;21.80;99.90;;;;;;5005174;28;20038;-78
2022/08/16 00:06:24;;;;;;;13.93;12.43;;;21.80;99.90;;;;;;4984759;28;20045;-78
2022/08/16 00:08:50;;;;;;;13.70;12.30;;;21.80;99.90;;;;;;5012426;28;20400;-78
2022/08/16 00:11:16;;;;;;;13.88;12.48;;;21.80;99.90;;;;;;4999973;28;20069;-78
2022/08/16 00:13:45;;;;;;;12.30;11.07;;;21.90;99.90;;;;;;5005810;28;20183;-78
2022/08/16 00:16:11;;;;;;;13.88;11.82;;;21.90;99.90;;;;;;5000953;28;20057;-78
2022/08/16 00:18:36;;;;;;;15.30;12.57;;;21.90;99.90;;;;;;5002270;28;20033;-78
2022/08/16 00:21:02;;;;;;;13.73;11.70;;;22.00;99.90;;;;;;4997994;28;20400;-78
2022/08/16 00:23:28;;;;;;;13.50;12.15;;;21.90;99.90;;;;;;5023391;28;20490;-77
2022/08/16 00:25:54;;;;;;;13.07;11.65;;;21.80;99.90;;;;;;4999798;28;20104;-77
2022/08/16 00:28:20;;;;;;;13.48;12.10;;;21.80;99.90;;;;;;5021173;28;20477;-77
2022/08/16 00:30:46;;;;;;;14.23;12.82;;;21.80;99.90;;;;;;5016404;28;20045;-77
2022/08/16 00:33:15;;;;;;;13.75;11.88;;;21.80;99.90;;;;;;5006386;28;20068;-87
2022/08/16 00:35:44;;;;;;;15.30;13.20;;;21.80;99.90;;;;;;5003113;28;20527;-83
2022/08/16 00:38:10;;;;;;;16.67;13.27;;;21.90;99.90;;;;;;5019464;28;20077;-83
2022/08/16 00:40:41;;;;;;;15.85;12.68;;;21.90;99.90;;;;;;5018777;28;20069;-84
2022/08/16 00:43:14;;;;;;;14.95;13.32;;;21.90;99.90;;;;;;5016498;28;20037;-83
2022/08/16 00:46:05;;;;;;;14.50;13.10;;;21.80;99.90;;;;;;5009127;28;20041;-84
2022/08/16 00:48:32;;;;;;;14.52;12.57;;;21.80;99.90;;;;;;5004495;28;20045;-83
2022/08/16 00:50:59;;;;;;;14.60;13.10;;;21.70;99.90;;;;;;5023232;28;20065;-83
2022/08/16 00:53:25;;;;;;;15.90;12.85;;;21.80;99.90;;;;;;5011151;28;20418;-84
2022/08/16 00:55:54;;;;;;;16.42;13.43;;;21.80;99.90;;;;;;4999388;28;20045;-84
2022/08/16 00:58:23;;;;;;;15.38;12.57;;;21.80;99.90;;;;;;5007057;28;20038;-83
2022/08/16 01:00:49;;;;;;;13.68;12.27;;;21.70;99.90;;;;;;5011351;28;20176;-83
2022/08/16 01:03:16;;;;;;;;;;;21.80;99.90;;;;;;5021767;28;20038;-83
2022/08/16 01:05:43;;;;;;;13.75;12.25;;;21.70;99.90;;;;;;4996957;28;19921;-83
2022/08/16 01:08:12;;;;;;;14.20;12.25;;;21.70;99.90;;;;;;5009692;28;20571;-84
2022/08/16 01:10:38;;;;;;;14.45;12.73;;;21.60;99.90;;;;;;5018462;28;20076;-84
2022/08/16 01:13:10;;;;;;;13.90;12.50;;;21.70;99.90;;;;;;4999653;28;20041;-83
2022/08/16 01:15:39;;;;;;;14.80;12.50;;;21.70;99.90;;;;;;5000413;28;20060;-83
2022/08/16 01:18:08;;;;;;;15.52;13.68;;;21.70;99.90;;;;;;4995316;28;20042;-83
2022/08/16 01:20:42;;;;;;;13.90;12.50;;;21.70;99.90;;;;;;5022663;28;20043;-83
2022/08/16 01:23:19;;;;;;;13.88;12.43;;;21.70;99.90;;;;;;5018373;28;20041;-83
2022/08/16 01:25:48;;;;;;;14.20;12.70;;;21.70;99.90;;;;;;5011250;28;20091;-83
2022/08/16 01:28:16;;;;;;;14.07;12.65;;;21.70;99.90;;;;;;5016715;28;20053;-83
2022/08/16 01:30:47;;;;;;;15.73;13.05;;;21.70;99.90;;;;;;5024417;28;20046;-83
2022/08/16 01:33:13;;;;;;;13.20;11.77;;;21.70;99.90;;;;;;5013767;28;20493;-83
2022/08/16 01:35:54;;;;;;;12.65;11.35;;;21.60;99.90;;;;;;5015686;28;20029;-83
2022/08/16 01:38:30;;;;;;;16.23;12.35;;;21.60;99.90;;;;;;5019881;28;20558;-83
2022/08/16 01:41:00;;;;;;;12.90;11.65;;;21.60;99.90;;;;;;5007952;28;20107;-83
2022/08/16 01:43:26;;;;;;;15.32;12.52;;;21.60;99.90;;;;;;5022229;28;20033;-83
2022/08/16 01:45:57;;;;;;;15.05;12.90;;;21.60;99.90;;;;;;5019295;28;20034;-83
2022/08/16 01:48:26;;;;;;;15.18;12.82;;;21.70;99.90;;;;;;5045169;28;20038;-83
2022/08/16 01:50:53;;;;;;;15.57;12.38;;;21.60;99.90;;;;;;5006653;28;20079;-83
2022/08/16 01:53:19;;;;;;;14.35;12.13;;;21.60;99.90;;;;;;5009555;28;20144;-82
2022/08/16 01:55:45;;;;;;;14.77;12.68;;;21.60;99.90;;;;;;4997514;28;20057;-83
2022/08/16 01:58:15;;;;;;;14.57;12.32;;;21.50;99.90;;;;;;5029252;28;20037;-83
2022/08/16 02:00:42;;;;;;;16.30;12.80;;;21.50;99.90;;;;;;5005099;28;21001;-83
2022/08/16 02:03:08;;;;;;;15.77;13.43;;;21.50;99.90;;;;;;5022288;28;20030;-83
2022/08/16 02:05:35;;;;;;;14.30;12.80;;;21.50;99.90;;;;;;5007989;28;20033;-83
2022/08/16 02:08:02;;;;;;;15.68;13.98;;;21.50;99.90;;;;;;5028528;28;20045;-83
2022/08/16 02:10:28;;;;;;;17.02;13.02;;;21.40;99.90;;;;;;5012919;28;20463;-83
2022/08/16 02:12:53;;;;;;;15.27;13.50;;;21.40;99.90;;;;;;5009802;28;20068;-83
2022/08/16 02:15:23;;;;;;;15.77;14.00;;;21.40;99.90;;;;;;5007557;28;20045;-83
2022/08/16 02:17:49;;;;;;;15.07;13.63;;;21.30;99.90;;;;;;5009627;28;20606;-83
2022/08/16 02:20:18;;;;;;;16.45;13.90;;;21.30;99.90;;;;;;5023991;28;20029;-83
2022/08/16 02:22:44;;;;;;;15.23;13.63;;;21.30;99.90;;;;;;5005902;28;20033;-84
2022/08/16 02:25:13;;;;;;;17.02;15.32;;;21.30;99.90;;;;;;5003300;28;20124;-83
2022/08/16 02:27:40;;;;;;;17.55;14.80;;;21.30;99.90;;;;;;4997584;28;20053;-83
2022/08/16 02:30:13;;;;;;;18.33;15.32;;;21.20;99.90;;;;;;5025455;28;20034;-83
2022/08/16 02:32:40;;;;;;;16.80;14.55;;;21.20;99.90;;;;;;5018844;28;20045;-83
2022/08/16 02:35:05;;;;;;;16.08;14.48;;;21.30;99.90;;;;;;4997773;28;20470;-83
2022/08/16 02:37:32;;;;;;;16.90;15.07;;;21.30;99.90;;;;;;5017392;28;20038;-83
2022/08/16 02:39:58;;;;;;;;;;;21.30;99.90;;;;;;5031292;28;20029;-83
2022/08/16 02:42:24;;;;;;;16.40;14.75;;;21.30;99.90;;;;;;5002547;28;19918;-83
2022/08/16 02:44:49;;;;;;;16.85;15.07;;;21.30;99.90;;;;;;5021374;28;20053;-83
2022/08/16 02:47:15;;;;;;;19.77;15.52;;;21.30;99.90;;;;;;5011846;28;20124;-83
2022/08/16 02:49:42;;;;;;;16.52;14.90;;;21.30;99.90;;;;;;4989825;28;20088;-83
2022/08/16 02:52:11;;;;;;;18.75;16.42;;;21.30;99.90;;;;;;5004520;28;20501;-83
2022/08/16 02:54:37;;;;;;;21.17;15.82;;;21.30;99.90;;;;;;5022212;28;20132;-83
2022/08/16 02:57:03;;;;;;;17.98;15.63;;;21.20;99.90;;;;;;5013314;28;20124;-83
2022/08/16 02:59:29;;;;;;;16.67;15.02;;;21.30;99.90;;;;;;5020202;28;20045;-83
2022/08/16 03:01:55;;;;;;;18.40;16.58;;;21.20;99.90;;;;;;5020488;28;20038;-83
2022/08/16 03:04:21;;;;;;;18.15;16.17;;;21.20;99.90;;;;;;5019160;28;20045;-83
2022/08/16 03:06:48;;;;;;;18.00;16.10;;;21.20;99.90;;;;;;5004174;28;20041;-83
2022/08/16 03:09:13;;;;;;;;;;;21.20;99.90;;;;;;5023511;28;20199;-83
2022/08/16 03:11:39;;;;;;;17.33;15.68;;;21.20;99.90;;;;;;5006108;28;20003;-83
2022/08/16 03:14:05;;;;;;;19.92;17.92;;;21.10;99.90;;;;;;5024966;28;20180;-83
2022/08/16 03:16:31;;;;;;;19.25;17.27;;;21.10;99.90;;;;;;5000034;28;20101;-82
2022/08/16 03:18:56;;;;;;;18.83;16.92;;;21.00;99.90;;;;;;5019917;28;20046;-83
2022/08/16 03:21:22;;;;;;;19.98;17.80;;;20.90;99.90;;;;;;5027715;28;20465;-83
2022/08/16 03:23:48;;;;;;;19.52;17.25;;;20.80;99.90;;;;;;5003025;28;20670;-83
2022/08/16 03:26:14;;;;;;;20.23;17.92;;;20.80;99.90;;;;;;5019936;28;20115;-83
2022/08/16 03:28:40;;;;;;;19.40;17.42;;;20.70;99.90;;;;;;5013798;28;20048;-83
2022/08/16 03:31:07;;;;;;;20.17;17.95;;;20.70;99.90;;;;;;5015743;28;20040;-83
2022/08/16 03:33:34;;;;;;;19.80;17.85;;;20.70;99.90;;;;;;5015103;28;20041;-83
2022/08/16 03:36:00;;;;;;;18.90;16.90;;;20.70;99.90;;;;;;5019994;28;20052;-83
2022/08/16 03:38:27;;;;;;;20.02;17.88;;;20.70;99.90;;;;;;4987298;28;20426;-83
2022/08/16 03:40:55;;;;;;;20.83;17.00;;;20.60;99.90;;;;;;5014768;28;20044;-83
2022/08/16 03:43:21;;;;;;;20.58;16.65;;;20.60;99.90;;;;;;4996544;28;20036;-83
2022/08/16 03:45:47;;;;;;;;;;;20.60;99.90;;;;;;5019946;28;20062;-83
2022/08/16 03:48:12;;;;;;;17.35;15.52;;;20.60;99.90;;;;;;5013394;28;19925;-83
2022/08/16 03:50:38;;;;;;;19.25;16.63;;;20.50;99.90;;;;;;5003218;28;20041;-83
2022/08/16 03:53:05;;;;;;;19.70;17.55;;;20.50;99.90;;;;;;5000198;28;20464;-83
2022/08/16 03:55:31;;;;;;;18.08;16.33;;;20.50;99.90;;;;;;5025967;28;20049;-83
2022/08/16 03:57:56;;;;;;;18.10;16.25;;;20.50;99.90;;;;;;5001819;28;20402;-83
2022/08/16 04:00:27;;;;;;;20.25;17.42;;;20.50;99.90;;;;;;5022441;28;20163;-83
2022/08/16 04:03:01;;;;;;;20.38;16.83;;;20.40;99.90;;;;;;5017165;28;20057;-83
2022/08/16 04:05:27;;;;;;;18.75;15.93;;;20.40;99.90;;;;;;5001247;28;20065;-84
2022/08/16 04:07:53;;;;;;;17.77;15.90;;;20.40;99.90;;;;;;5016395;28;20556;-83
2022/08/16 04:10:19;;;;;;;22.83;16.90;;;20.30;99.90;;;;;;5009981;28;20184;-83
2022/08/16 04:12:45;;;;;;;18.80;16.15;;;20.30;99.90;;;;;;5020863;28;20503;-78
2022/08/16 04:15:13;;;;;;;19.33;17.35;;;20.30;99.90;;;;;;5028176;28;20037;-80
2022/08/16 04:17:40;;;;;;;18.90;16.98;;;20.20;99.90;;;;;;5005256;28;20397;-77
2022/08/16 04:20:08;;;;;;;18.33;16.42;;;20.10;99.90;;;;;;5004073;28;20041;-77
2022/08/16 04:22:35;;;;;;;18.75;16.73;;;20.10;99.90;;;;;;5020762;28;20045;-77
2022/08/16 04:25:02;;;;;;;19.00;15.88;;;20.10;99.90;;;;;;5018888;28;20122;-77
2022/08/16 04:27:27;;;;;;;21.20;16.88;;;20.00;99.90;;;;;;5019096;28;20121;-77
2022/08/16 04:29:53;;;;;;;19.63;17.30;;;20.00;99.90;;;;;;5018588;28;20128;-77
2022/08/16 04:32:19;;;;;;;18.75;16.85;;;20.00;99.90;;;;;;5007284;28;20049;-77
2022/08/16 04:34:45;;;;;;;19.48;17.38;;;20.00;99.90;;;;;;5015845;28;20085;-77
2022/08/16 04:37:11;;;;;;;18.85;16.63;;;20.00;99.90;;;;;;5013014;28;20041;-78
2022/08/16 04:39:37;;;;;;;19.88;17.77;;;20.00;99.90;;;;;;5016772;28;20076;-78
2022/08/16 04:42:04;;;;;;;22.85;17.73;;;20.00;99.90;;;;;;5013934;28;20038;-78
2022/08/16 04:44:30;;;;;;;19.00;16.73;;;20.00;99.90;;;;;;5023795;28;20041;-77
2022/08/16 04:46:56;;;;;;;20.02;17.52;;;19.90;99.90;;;;;;5000180;28;20519;-77
2022/08/16 04:49:22;;;;;;;20.40;17.98;;;19.90;99.90;;;;;;4998397;28;20049;-76
2022/08/16 04:51:49;;;;;;;19.92;17.50;;;19.90;99.90;;;;;;5017913;28;20107;-76
2022/08/16 04:54:14;;;;;;;20.60;18.10;;;19.90;99.90;;;;;;5023674;28;20049;-83
2022/08/16 04:56:40;;;;;;;20.55;18.40;;;19.80;99.90;;;;;;5009955;28;20555;-82
2022/08/16 04:59:09;;;;;;;21.05;18.70;;;19.80;99.90;;;;;;5003374;28;20055;-81
2022/08/16 05:01:36;;;;;;;21.55;18.20;;;19.70;99.90;;;;;;5002650;28;20063;-81
2022/08/16 05:04:04;;;;;;;20.80;17.10;;;19.70;99.90;;;;;;5016780;28;20037;-82
2022/08/16 05:06:31;;;;;;;19.33;17.23;;;19.70;99.90;;;;;;5017323;28;20045;-81
2022/08/16 05:08:56;;;;;;;21.30;17.92;;;19.70;99.90;;;;;;5006462;28;20045;-81
2022/08/16 05:11:24;;;;;;;20.67;17.70;;;19.70;99.90;;;;;;5002309;28;20424;-81
2022/08/16 05:13:49;;;;;;;20.88;18.67;;;19.70;99.90;;;;;;5019913;28;20464;-82
2022/08/16 05:16:21;;;;;;;18.00;15.98;;;19.80;99.90;;;;;;5022507;28;20045;-81
2022/08/16 05:18:48;;;;;;;19.35;17.25;;;19.90;99.90;;;;;;5008834;28;20041;-81
2022/08/16 05:21:17;;;;;;;18.35;16.45;;;19.90;99.90;;;;;;5004080;28;20041;-81
2022/08/16 05:23:43;;;;;;;18.85;16.50;;;19.90;99.90;;;;;;5007632;28;20496;-82
2022/08/16 05:26:09;;;;;;;17.95;16.05;;;20.00;99.90;;;;;;5022236;28;20128;-81
2022/08/16 05:28:34;;;;;;;20.63;16.42;;;20.00;99.90;;;;;;5022597;28;20121;-81
2022/08/16 05:31:00;;;;;;;19.00;16.88;;;20.00;99.90;;;;;;5022113;28;20046;-82
2022/08/16 05:33:26;;;;;;;20.17;17.42;;;20.00;99.90;;;;;;5008429;28;20496;-81
2022/08/16 05:35:52;;;;;;;19.90;17.08;;;20.00;99.90;;;;;;5021228;28;20124;-82
2022/08/16 05:38:18;;;;;;;19.15;16.08;;;20.10;99.90;;;;;;5005745;28;20044;-82
2022/08/16 05:40:44;;;;;;;18.55;16.50;;;20.10;99.90;;;;;;5001986;28;20033;-81
2022/08/16 05:43:10;;;;;;;22.13;16.30;;;20.20;99.90;;;;;;5019483;28;20064;-82
2022/08/16 05:45:36;;;;;;;19.08;16.50;;;20.30;99.90;;;;;;5021945;28;20037;-82
2022/08/16 05:48:02;;;;;;;18.02;16.13;;;20.40;99.90;;;;;;5007959;28;20449;-82
2022/08/16 05:50:28;;;;;;;18.80;15.80;;;20.40;99.90;;;;;;5003365;28;20523;-81
2022/08/16 05:52:54;;;;;;;18.35;16.23;;;20.60;99.90;;;;;;5020711;28;20053;-81
2022/08/16 05:55:19;;;;;;;17.35;15.43;;;20.60;99.90;;;;;;4987971;28;20141;-82
2022/08/16 05:57:46;;;;;;;17.77;15.43;;;20.70;99.90;;;;;;5021986;28;20076;-82
2022/08/16 06:00:13;;;;;;;18.77;15.73;;;20.80;99.90;;;;;;5004127;28;20034;-82
2022/08/16 06:02:40;;;;;;;17.85;15.80;;;20.90;99.90;;;;;;5003768;28;20123;-81
2022/08/16 06:05:07;;;;;;;19.40;16.55;;;21.00;99.90;;;;;;5021318;28;20416;-82
2022/08/16 06:07:33;;;;;;;19.45;16.35;;;21.20;99.90;;;;;;5005435;28;20073;-82
2022/08/16 06:10:00;;;;;;;18.50;15.95;;;21.20;99.90;;;;;;5023889;28;20762;-82
2022/08/16 06:12:27;;;;;;;18.95;15.98;;;21.30;99.90;;;;;;5021901;28;20049;-82
2022/08/16 06:14:57;;;;;;;18.63;15.85;;;21.40;99.90;;;;;;5004093;28;20045;-82
2022/08/16 06:17:23;;;;;;;18.52;15.82;;;21.50;99.90;;;;;;5007592;28;20163;-82
2022/08/16 06:19:49;;;;;;;19.73;16.08;;;21.60;99.90;;;;;;5021658;28;20558;-82
2022/08/16 06:22:15;;;;;;;19.25;16.77;;;21.80;99.90;;;;;;5005065;28;20034;-82
2022/08/16 06:24:43;;;;;;;18.77;15.93;;;21.90;99.90;;;;;;5021545;28;20038;-82
2022/08/16 06:27:09;;;;;;;18.33;16.20;;;22.00;99.90;;;;;;5022815;28;20041;-82
2022/08/16 06:29:35;;;;;;;19.35;14.48;;;21.90;99.90;;;;;;5004793;28;20045;-82
2022/08/16 06:32:01;;;;;;;20.50;15.23;;;21.80;99.90;;;;;;5005721;28;20047;-83
2022/08/16 06:34:27;;;;;;;17.38;14.60;;;22.00;99.90;;;;;;5003019;28;20045;-83
2022/08/16 06:36:53;;;;;;;17.52;14.82;;;22.40;99.90;;;;;;5023581;28;20493;-83
2022/08/16 06:39:18;;;;;;;18.23;15.68;;;22.90;99.90;;;;;;5006187;28;20091;-83
2022/08/16 06:41:44;;;;;;;17.30;14.00;;;23.30;99.90;;;;;;5004649;28;20047;-83
2022/08/16 06:44:10;;;;;;;18.63;14.50;;;23.60;99.90;;;;;;5020718;28;20033;-84
2022/08/16 06:46:36;;;;;;;15.25;13.65;;;23.80;99.90;;;;;;5020341;28;20030;-83
2022/08/16 06:49:08;;;;;;;17.13;14.32;;;24.10;99.90;;;;;;5021221;28;20038;-84
2022/08/16 06:51:35;;;;;;;17.33;13.77;;;24.30;99.90;;;;;;5022667;28;20036;-83
2022/08/16 06:54:02;;;;;;;14.77;13.15;;;24.60;99.90;;;;;;5027390;28;20033;-83
2022/08/16 06:56:27;;;;;;;16.67;13.90;;;24.90;99.90;;;;;;5005219;28;20061;-84
2022/08/16 06:58:53;;;;;;;;;;;25.20;99.90;;;;;;5005280;28;20033;-83
2022/08/16 07:01:22;;;;;;;14.73;12.80;;;25.40;99.90;;;;;;5014598;28;19928;-84
2022/08/16 07:03:49;;;;;;;17.90;12.82;;;25.50;99.90;;;;;;4999332;28;20088;-83
2022/08/16 07:06:17;;;;;;;14.25;12.75;;;25.70;99.90;;;;;;5021436;28;20080;-84
2022/08/16 07:08:45;;;;;;;18.13;14.20;;;25.70;99.90;;;;;;5028331;28;20033;-83
2022/08/16 07:11:11;;;;;;;15.95;12.98;;;25.80;99.90;;;;;;5020647;28;20143;-83
2022/08/16 07:13:37;;;;;;;15.25;13.52;;;26.00;99.90;;;;;;5007523;28;20493;-84
2022/08/16 07:16:04;;;;;;;;;;;26.10;99.90;;;;;;5018400;28;20037;-84
2022/08/16 07:18:30;;;;;;;;;;;26.30;99.90;;;;;;4996980;28;19943;-84
2022/08/16 07:20:57;;;;;;;14.10;12.57;;;26.40;99.90;;;;;;5021958;28;19917;-84
2022/08/16 07:23:24;;;;;;;15.07;12.43;;;26.50;99.90;;;;;;5020955;28;20524;-84
2022/08/16 07:25:50;;;;;;;13.52;12.05;;;26.60;99.90;;;;;;5018716;28;20125;-84
2022/08/16 07:28:17;;;;;;;14.63;12.10;;;26.70;99.90;;;;;;5020435;28;20045;-84
2022/08/16 07:30:44;;;;;;;13.07;11.30;;;26.90;99.90;;;;;;5020564;28;20037;-83
2022/08/16 07:33:11;;;;;;;12.23;10.13;;;27.10;99.90;;;;;;5020190;28;20121;-84
2022/08/16 07:35:37;;;;;;;15.75;11.10;;;27.00;99.90;;;;;;5018005;28;20124;-84
2022/08/16 07:38:05;;;;;;;12.30;10.15;;;27.20;99.90;;;;;;5021648;28;20041;-84
2022/08/16 07:40:31;;;;;;;12.80;10.50;;;27.20;99.90;;;;;;5019986;28;20042;-84
2022/08/16 07:42:57;;;;;;;13.23;10.55;;;27.30;99.90;;;;;;5019956;28;20113;-84
2022/08/16 07:45:23;;;;;;;11.60;10.48;;;27.40;99.90;;;;;;5024089;28;20124;-84
2022/08/16 07:47:49;;;;;;;14.85;11.05;;;27.50;99.90;;;;;;4987215;28;20113;-84
2022/08/16 07:50:15;;;;;;;11.25;10.15;;;27.60;99.90;;;;;;5021518;28;20511;-84
2022/08/16 07:52:43;;;;;;;11.50;10.30;;;27.80;99.90;;;;;;5020350;28;20065;-84
2022/08/16 07:55:12;;;;;;;12.73;10.75;;;28.00;99.90;;;;;;5006556;28;20041;-84
2022/08/16 07:57:38;;;;;;;11.15;9.95;;;27.90;99.90;;;;;;5020460;28;20495;-84
2022/08/16 08:00:05;;;;;;;12.82;10.98;;;28.00;99.90;;;;;;5016842;28;20029;-85
2022/08/16 08:02:32;;;;;;;16.27;10.75;;;28.00;99.90;;;;;;5019241;28;20087;-84
2022/08/16 08:04:58;;;;;;;12.07;10.93;;;28.20;99.40;;;;;;5003386;28;20033;-84
2022/08/16 08:07:24;;;;;;;15.48;10.27;;;28.20;99.90;;;;;;5000463;28;20037;-84
2022/08/16 08:09:50;;;;;;;14.65;9.80;;;28.20;99.90;;;;;;5001132;28;20046;-84
2022/08/16 08:12:18;;;;;;;12.13;10.20;;;28.30;99.90;;;;;;5021542;28;20045;-84
2022/08/16 08:14:45;;;;;;;11.68;10.48;;;28.60;99.00;;;;;;5017992;28;20139;-84
2022/08/16 08:17:11;;;;;;;11.38;10.15;;;28.90;98.70;;;;;;5003240;28;20164;-84
2022/08/16 08:19:37;;;;;;;14.07;10.63;;;29.10;98.40;;;;;;5019548;28;20072;-84
2022/08/16 08:22:04;;;;;;;11.50;10.07;;;29.10;98.20;;;;;;5003541;28;20046;-84
2022/08/16 08:24:31;;;;;;;14.75;10.20;;;29.10;98.70;;;;;;5003629;28;20042;-84
2022/08/16 08:27:01;;;;;;;12.25;9.52;;;29.30;98.20;;;;;;5017604;28;20050;-84
2022/08/16 08:29:27;;;;;;;13.45;9.68;;;29.30;98.40;;;;;;5003474;28;20034;-84
2022/08/16 08:31:52;;;;;;;10.88;8.85;;;29.50;98.70;;;;;;5003221;28;20478;-84
2022/08/16 08:34:20;;;;;;;11.65;9.15;;;29.80;98.10;;;;;;5024278;28;20129;-84
2022/08/16 08:36:47;;;;;;;12.57;10.13;;;30.00;97.50;;;;;;5001672;28;20045;-85
2022/08/16 08:39:14;;;;;;;9.80;8.80;;;30.10;97.40;;;;;;5026209;28;20033;-84
2022/08/16 08:41:43;;;;;;;13.40;9.00;;;30.50;96.60;;;;;;5003534;28;20048;-85
2022/08/16 08:44:10;;;;;;;10.90;9.13;;;30.50;96.30;;;;;;5019388;28;20077;-85
2022/08/16 08:46:36;;;;;;;9.77;7.95;;;30.60;96.00;;;;;;5019003;28;20116;-85
2022/08/16 08:49:06;;;;;;;8.88;7.97;;;30.60;96.40;;;;;;5025767;28;20041;-85
2022/08/16 08:51:33;;;;;;;11.10;9.20;;;30.70;95.90;;;;;;5009545;28;20364;-84
2022/08/16 08:53:59;;;;;;;10.38;9.32;;;30.90;95.80;;;;;;5023449;28;20509;-85
2022/08/16 08:56:25;;;;;;;11.13;9.15;;;31.20;95.40;;;;;;5004176;28;20045;-85
2022/08/16 08:58:51;;;;;;;10.00;9.00;;;31.00;95.60;;;;;;5028057;28;20077;-85
2022/08/16 09:01:22;;;;;;;9.70;8.80;;;31.00;95.60;;;;;;5023271;28;20041;-85
2022/08/16 09:03:48;;;;;;;9.90;8.02;;;31.10;95.20;;;;;;5025483;28;20041;-85
2022/08/16 09:06:13;;;;;;;9.73;7.43;;;31.30;95.40;;;;;;5023413;28;20096;-86
2022/08/16 09:08:39;;;;;;;7.55;6.72;;;31.30;95.60;;;;;;5022198;28;20041;-85
2022/08/16 09:11:05;;;;;;;8.70;5.97;;;31.40;94.80;;;;;;5013646;28;20095;-85
2022/08/16 09:13:33;;;;;;;7.20;5.47;;;31.80;93.80;;;;;;5022977;28;20042;-85
2022/08/16 09:15:59;;;;;;;7.53;5.90;;;31.80;93.80;;;;;;5021754;28;20045;-85
2022/08/16 09:18:26;;;;;;;9.45;6.45;;;31.80;93.40;;;;;;5013261;28;20386;-86
2022/08/16 09:20:53;;;;;;;7.32;5.45;;;31.70;94.20;;;;;;5012201;28;20038;-86
2022/08/16 09:23:19;;;;;;;6.95;5.32;;;31.90;93.30;;;;;;5021763;28;20516;-86
2022/08/16 09:25:45;;;;;;;9.30;5.45;;;32.20;92.80;;;;;;5009173;28;20046;-86
2022/08/16 09:28:11;;;;;;;6.28;4.95;;;32.20;93.10;;;;;;5022297;28;20045;-86
2022/08/16 09:30:37;;;;;;;5.95;4.60;;;32.20;92.80;;;;;;4989417;28;20083;-85
2022/08/16 09:33:04;;;;;;;7.35;4.65;;;32.30;93.30;;;;;;5006862;28;20042;-86
2022/08/16 09:35:30;;;;;;;10.65;5.40;;;32.40;92.70;;;;;;5020830;28;20393;-86
2022/08/16 09:37:56;;;;;;;8.75;4.97;;;32.60;92.30;;;;;;5007683;28;20099;-85
2022/08/16 09:40:22;;;;;;;7.47;5.70;;;32.50;92.50;;;;;;5029209;28;20037;-80
2022/08/16 09:42:49;;;;;;;6.55;5.60;;;32.80;92.20;;;;;;5006188;28;20041;-80
2022/08/16 09:45:15;;;;;;;10.20;6.80;;;32.80;91.70;;;;;;5005262;28;20514;-80
2022/08/16 09:47:41;;;;;;;8.45;6.07;;;32.80;92.10;;;;;;5000618;28;20080;-80
2022/08/16 09:50:09;;;;;;;7.00;6.07;;;32.80;92.00;;;;;;5007198;28;20053;-80
2022/08/16 09:52:36;;;;;;;7.75;6.07;;;32.90;92.10;;;;;;5022609;28;20049;-80
2022/08/16 09:55:09;;;;;;;7.70;5.07;;;33.00;92.00;;;;;;5004527;28;20501;-80
2022/08/16 09:57:35;;;;;;;7.93;5.45;;;33.20;92.00;;;;;;5004467;28;20042;-80
2022/08/16 10:00:04;;;;;;;9.57;5.60;;;33.60;91.10;;;;;;5005791;28;20026;-80
2022/08/16 10:02:29;;;;;;;6.50;5.32;;;33.60;91.60;;;;;;5024439;28;20373;-80
2022/08/16 10:04:56;;;;;;;11.15;6.13;;;33.60;91.20;;;;;;5005119;28;20038;-80
2022/08/16 10:07:27;;;;;;;11.15;7.13;;;33.70;91.50;;;;;;5005876;28;20134;-80
2022/08/16 10:09:53;;;;;;;7.28;6.10;;;33.80;91.10;;;;;;5030188;28;20147;-80
2022/08/16 10:15:04;;;;;;;9.40;6.00;;;34.10;90.60;;;;;;5029931;28;20391;-80
2022/08/16 10:17:30;;;;;;;6.45;5.43;;;33.90;91.00;;;;;;5004355;28;20485;-80
2022/08/16 10:19:56;;;;;;;8.73;6.53;;;33.70;91.50;;;;;;5019372;28;20548;-80
2022/08/16 10:22:22;;;;;;;6.88;6.18;;;33.80;91.00;;;;;;5005385;28;20368;-80
2022/08/16 10:24:48;;;;;;;6.55;5.80;;;34.10;90.90;;;;;;5005404;28;20033;-81
2022/08/16 10:27:14;;;;;;;10.15;6.30;;;34.20;90.60;;;;;;4991298;28;20045;-80
2022/08/16 10:29:39;;;;;;;8.90;5.97;;;34.10;90.70;;;;;;5029476;28;20104;-80
2022/08/16 10:32:05;;;;;;;7.40;5.90;;;34.20;90.20;;;;;;4989532;28;20029;-80
2022/08/16 10:34:31;;;;;;;7.53;6.55;;;34.20;90.80;;;;;;5029511;28;20111;-80
2022/08/16 10:36:57;;;;;;;9.55;6.50;;;34.30;90.40;;;;;;5005021;28;20038;-81
2022/08/16 10:39:23;;;;;;;8.40;6.78;;;34.20;90.90;;;;;;5028920;28;20030;-81
2022/08/16 10:41:48;;;;;;;8.75;7.65;;;34.30;90.70;;;;;;4989797;28;20352;-80
2022/08/16 10:44:14;;;;;;;10.20;6.82;;;34.40;91.00;;;;;;5030656;28;20069;-80
2022/08/16 10:46:41;;;;;;;9.90;7.18;;;34.50;91.00;;;;;;5005234;28;20053;-80
2022/08/16 10:49:09;;;;;;;9.27;7.00;;;34.70;91.00;;;;;;5028358;28;20029;-80
2022/08/16 10:51:37;;;;;;;11.57;7.60;;;34.80;90.40;;;;;;5022985;28;20030;-80
2022/08/16 10:54:03;;;;;;;6.93;6.18;;;34.70;90.60;;;;;;5026652;28;20042;-80
2022/08/16 10:56:29;;;;;;;9.07;7.07;;;34.80;91.10;;;;;;5014366;28;20041;-80
2022/08/16 10:58:56;;;;;;;8.88;7.30;;;34.80;90.50;;;;;;4989237;28;20363;-81
2022/08/16 11:01:24;;;;;;;8.55;6.53;;;35.00;90.30;;;;;;5022769;28;20044;-80
2022/08/16 11:03:51;;;;;;;6.57;5.93;;;35.00;90.70;;;;;;5018121;28;20120;-80
2022/08/16 11:06:17;;;;;;;8.13;6.60;;;35.00;90.80;;;;;;5021261;28;20049;-80
2022/08/16 11:08:43;;;;;;;8.43;6.90;;;35.20;90.60;;;;;;5006200;28;20366;-81
2022/08/16 11:11:10;;;;;;;8.45;6.88;;;35.40;90.60;;;;;;5001552;28;20049;-81
2022/08/16 11:13:36;;;;;;;9.65;6.22;;;35.50;89.80;;;;;;5004765;28;20042;-80
2022/08/16 11:16:03;;;;;;;8.80;7.35;;;35.30;90.20;;;;;;4987255;28;20107;-81
2022/08/16 11:18:29;;;;;;;10.90;6.70;;;35.10;89.80;;;;;;5008196;28;20034;-81
2022/08/16 11:20:57;;;;;;;7.60;6.30;;;35.00;90.60;;;;;;5004662;28;20075;-81
2022/08/16 11:23:24;;;;;;;6.38;5.65;;;35.10;90.60;;;;;;5002124;28;20060;-81
2022/08/16 11:25:51;;;;;;;11.38;5.90;;;35.30;90.40;;;;;;5003075;28;20049;-81
2022/08/16 11:28:17;;;;;;;7.03;5.60;;;35.50;90.60;;;;;;5002393;28;20041;-81
2022/08/16 11:30:43;;;;;;;5.85;4.80;;;35.60;90.20;;;;;;5004973;28;20072;-87
2022/08/16 11:33:09;;;;;;;5.18;4.35;;;35.70;89.50;;;;;;5004616;28;20069;-87
2022/08/16 11:35:36;;;;;;;7.25;5.45;;;35.80;90.00;;;;;;5021477;28;20401;-87
2022/08/16 11:38:15;;;;;;;6.90;5.47;;;35.80;89.10;;;;;;5001323;28;20393;-87
2022/08/16 11:40:50;;;;;;;7.10;5.35;;;36.00;89.00;;;;;;5020475;28;20489;-87
2022/08/16 11:43:19;;;;;;;6.40;5.67;;;35.90;88.00;;;;;;5020547;28;20037;-87
2022/08/16 11:45:49;;;;;;;6.63;4.90;;;35.60;88.40;;;;;;5024866;28;20060;-87
2022/08/16 11:48:15;;;;;;;4.82;4.43;;;35.50;88.70;;;;;;5020300;28;20349;-87
2022/08/16 11:50:42;;;;;;;8.35;4.70;;;35.60;89.20;;;;;;5024649;28;20890;-87
2022/08/16 11:53:09;;;;;;;6.95;5.45;;;35.60;89.10;;;;;;5003992;28;20064;-88
2022/08/16 11:55:36;;;;;;;6.55;5.20;;;35.70;89.30;;;;;;5028396;28;20076;-87
2022/08/16 11:58:03;;;;;;;7.93;4.60;;;35.70;89.10;;;;;;5019630;28;20034;-87
2022/08/16 12:00:30;;;;;;;6.65;4.35;;;35.60;88.40;;;;;;5020118;28;20049;-88
2022/08/16 12:02:56;;;;;;;6.35;4.65;;;35.70;88.80;;;;;;5019132;28;20497;-88
2022/08/16 12:05:23;;;;;;;6.28;5.30;;;35.70;88.90;;;;;;5008352;28;20076;-88
2022/08/16 12:07:49;;;;;;;7.80;4.68;;;35.80;88.30;;;;;;5025281;28;20054;-88
2022/08/16 12:10:18;;;;;;;7.07;3.95;;;35.90;87.30;;;;;;5006241;28;20124;-87
2022/08/16 12:12:45;;;;;;;6.60;4.75;;;36.10;87.50;;;;;;5020006;28;20484;-88
2022/08/16 12:15:12;;;;;;;6.35;5.20;;;36.20;87.70;;;;;;5021363;28;20030;-87
2022/08/16 12:17:39;;;;;;;7.03;4.20;;;36.00;86.90;;;;;;5017018;28;20037;-87
2022/08/16 12:20:08;;;;;;;7.45;4.90;;;35.50;87.50;;;;;;5019621;28;20092;-87
2022/08/16 12:22:36;;;;;;;9.82;5.15;;;35.50;88.90;;;;;;5004026;28;20095;-87
2022/08/16 12:25:07;;;;;;;5.53;4.93;;;35.10;89.20;;;;;;5006267;28;20091;-87
2022/08/16 12:27:34;;;;;;;5.60;4.72;;;35.00;89.90;;;;;;5019287;28;20037;-87
2022/08/16 12:29:59;;;;;;;7.18;5.00;;;35.10;89.10;;;;;;5019508;28;20088;-87
2022/08/16 12:32:26;;;;;;;5.85;4.72;;;35.30;89.00;;;;;;5021946;28;20500;-88
2022/08/16 12:34:52;;;;;;;7.68;4.90;;;35.40;89.60;;;;;;5026769;28;20064;-88
2022/08/16 12:37:18;;;;;;;5.95;4.32;;;35.80;88.90;;;;;;4988749;28;20042;-88